Time;durP1;ratioP1;P1;durP2;ratioP2;P2;SDS_P1;SDS_P2;PMS_P1;PMS_P2;Temp;Humidity;BMP_temperature;BMP_pressure;BME280_temperature;BME280_humidity;BME280_pressure;Samples;Min_cycle;Max_cycle;Signal;HPM_P1;HPM_P2
2022/05/08 00:01:41;;;;;;;25.70;6.60;;;;;;;8.03;76.02;101144.53;5083717;28;20465;-65
2022/05/08 00:04:06;;;;;;;33.33;6.68;;;;;;;8.05;75.95;101144.53;5083918;28;20016;-66
2022/05/08 00:06:31;;;;;;;33.13;5.82;;;;;;;7.94;75.82;101131.44;5083720;28;20021;-66
2022/05/08 00:08:58;;;;;;;26.15;6.32;;;;;;;8.03;75.96;101152.28;5083657;28;20027;-66
2022/05/08 00:11:23;;;;;;;25.83;5.88;;;;;;;8.02;75.87;101147.94;5083530;28;20029;-65
2022/05/08 00:13:49;;;;;;;30.75;6.68;;;;;;;8.02;75.94;101152.25;5083822;28;20465;-65
2022/05/08 00:16:14;;;;;;;27.70;5.95;;;;;;;8.01;75.77;101164.31;5083490;28;20027;-65
2022/05/08 00:18:40;;;;;;;31.83;6.32;;;;;;;7.98;76.18;101158.22;5083877;28;20027;-65
2022/05/08 00:21:06;;;;;;;31.88;5.65;;;;;;;7.97;76.07;101159.91;5083555;28;20024;-64
2022/05/08 00:23:32;;;;;;;29.13;6.65;;;;;;;7.92;76.43;101162.44;5083726;28;20020;-65
2022/05/08 00:25:58;;;;;;;25.27;5.68;;;;;;;7.91;76.31;101163.28;5083427;28;20017;-64
2022/05/08 00:28:23;;;;;;;26.30;5.43;;;;;;;7.90;76.21;101158.97;5083659;28;20050;-66
2022/05/08 00:30:48;;;;;;;22.65;5.43;;;;;;;7.89;76.21;101162.41;5065086;28;20484;-66
2022/05/08 00:33:14;;;;;;;25.08;6.20;;;;;;;7.86;75.99;101164.94;5083528;28;20016;-65
2022/05/08 00:35:39;;;;;;;19.27;5.63;;;;;;;7.83;76.15;101162.31;5083065;28;20025;-64
2022/05/08 00:38:05;;;;;;;24.90;6.90;;;;;;;7.74;76.15;101149.25;5083450;28;20496;-65
2022/05/08 00:40:35;;;;;;;19.73;6.57;;;;;;;7.79;76.05;101168.28;5083293;28;20013;-65
2022/05/08 00:43:36;;;;;;;21.73;6.32;;;;;;;7.75;75.89;101161.31;5083188;28;20365;-65
2022/05/08 00:46:03;;;;;;;28.20;7.95;;;;;;;7.69;75.90;101165.56;5083093;28;20039;-65
2022/05/08 00:48:29;;;;;;;16.13;5.57;;;;;;;7.69;76.16;101164.69;5083101;28;20028;-65
2022/05/08 00:50:55;;;;;;;26.25;5.75;;;;;;;7.67;76.27;101166.38;5082842;28;20035;-64
2022/05/08 00:53:24;;;;;;;19.10;5.20;;;;;;;7.68;76.12;101166.38;5083138;28;20051;-65
2022/05/08 00:55:49;;;;;;;18.40;6.05;;;;;;;7.65;76.16;101163.75;5083115;28;20096;-65
2022/05/08 00:58:15;;;;;;;22.55;5.47;;;;;;;7.63;76.18;101162.00;5083160;28;20100;-65
2022/05/08 01:00:41;;;;;;;19.02;5.30;;;;;;;7.61;76.17;101161.97;5082686;28;20452;-65
2022/05/08 01:03:06;;;;;;;20.80;6.38;;;;;;;7.60;75.83;101156.78;5083194;28;20084;-65
2022/05/08 01:05:32;;;;;;;17.08;5.43;;;;;;;7.59;76.14;101163.66;5083157;28;20035;-65
2022/05/08 01:07:57;;;;;;;26.63;6.15;;;;;;;7.58;76.13;101167.09;5083163;28;20025;-65
2022/05/08 01:10:22;;;;;;;19.63;5.00;;;;;;;7.56;76.02;101161.91;5082738;28;20032;-64
2022/05/08 01:12:48;;;;;;;20.15;5.05;;;;;;;7.55;76.06;101167.06;5082825;28;20039;-65
2022/05/08 01:15:16;;;;;;;19.23;4.97;;;;;;;7.48;76.13;101165.19;5082709;28;20027;-65
2022/05/08 01:17:41;;;;;;;25.17;4.90;;;;;;;7.46;76.09;101160.00;5082855;28;20032;-65
2022/05/08 01:20:07;;;;;;;21.70;5.97;;;;;;;7.42;76.25;101172.03;5082694;28;20112;-65
2022/05/08 01:22:33;;;;;;;36.17;6.20;;;;;;;7.40;76.13;101168.53;5082781;28;20020;-65
2022/05/08 01:25:02;;;;;;;19.02;6.00;;;;;;;7.39;76.23;101171.09;5064899;28;20029;-65
2022/05/08 01:27:27;;;;;;;26.92;5.63;;;;;;;7.37;76.23;101167.59;5083225;28;20080;-65
2022/05/08 01:29:53;;;;;;;22.17;5.45;;;;;;;7.30;76.29;101164.06;5082827;28;20055;-65
2022/05/08 01:32:19;;;;;;;21.52;6.05;;;;;;;7.31;76.28;101174.41;5082688;28;20047;-65
2022/05/08 01:34:44;;;;;;;22.65;6.15;;;;;;;7.28;76.29;101182.13;5082971;28;20016;-65
2022/05/08 01:37:09;;;;;;;24.15;5.45;;;;;;;7.27;76.24;101179.47;5082469;28;20047;-65
2022/05/08 01:39:35;;;;;;;18.70;6.43;;;;;;;7.21;76.19;101184.53;5082816;28;20087;-65
2022/05/08 01:42:02;;;;;;;27.90;6.50;;;;;;;7.16;76.05;101184.44;5082274;28;20044;-65
2022/05/08 01:44:28;;;;;;;23.30;6.45;;;;;;;7.11;76.12;101186.09;5086859;28;20020;-65
2022/05/08 01:48:21;;;;;;;22.52;7.82;;;;;;;7.09;76.45;101190.34;5086476;28;20017;-65
2022/05/08 01:49:38;;;;;;;28.80;7.00;;;;;;;7.03;76.63;101191.97;5086536;28;20040;-64
2022/05/08 01:52:04;;;;;;;21.05;6.13;;;;;;;7.01;77.01;101190.22;5086396;28;20092;-64
2022/05/08 01:54:29;;;;;;;25.65;6.80;;;;;;;6.99;77.37;101197.06;5086936;28;20025;-65
2022/05/08 01:56:55;;;;;;;26.13;7.93;;;;;;;6.95;77.59;101196.13;5086430;28;20046;-65
2022/05/08 01:59:20;;;;;;;21.75;7.75;;;;;;;6.99;77.62;101197.94;5086495;28;20028;-65
2022/05/08 02:01:46;;;;;;;26.30;6.28;;;;;;;6.98;77.67;101195.31;5086449;28;20506;-65
2022/05/08 02:04:15;;;;;;;23.00;6.18;;;;;;;6.95;77.78;101196.13;5086622;28;20027;-65
2022/05/08 02:06:41;;;;;;;25.17;7.03;;;;;;;6.98;77.72;101198.75;5086467;28;20027;-65
2022/05/08 02:09:07;;;;;;;14.20;4.75;;;;;;;7.01;77.48;101200.53;5086312;28;20048;-65
2022/05/08 02:11:32;;;;;;;16.52;5.43;;;;;;;7.01;77.38;101203.13;5086133;28;20025;-65
2022/05/08 02:13:58;;;;;;;22.58;5.15;;;;;;;7.01;77.07;101205.72;5068217;28;20032;-65
2022/05/08 02:16:24;;;;;;;18.40;4.85;;;;;;;7.01;77.18;101210.88;5085654;28;20021;-65
2022/05/08 02:18:50;;;;;;;22.73;4.32;;;;;;;7.00;76.91;101214.28;5085740;28;20420;-64
2022/05/08 02:21:15;;;;;;;14.48;4.93;;;;;;;6.95;76.55;101203.84;5085624;28;20059;-66
2022/05/08 02:23:40;;;;;;;23.52;6.05;;;;;;;6.92;76.09;101212.44;5085979;28;20028;-65
2022/05/08 02:26:06;;;;;;;13.73;3.83;;;;;;;6.89;75.67;101216.66;5085664;28;20017;-65
2022/05/08 02:28:31;;;;;;;14.48;4.78;;;;;;;6.86;75.39;101212.31;5085593;28;20490;-64
2022/05/08 02:30:57;;;;;;;21.95;4.20;;;;;;;6.82;75.00;101215.69;5085333;28;20036;-64
2022/05/08 02:33:22;;;;;;;8.82;3.30;;;;;;;6.80;74.59;101222.50;5085709;28;20016;-66
2022/05/08 02:35:47;;;;;;;12.10;4.10;;;;;;;6.75;74.19;101231.84;5067141;28;20103;-66
2022/05/08 02:38:13;;;;;;;10.68;4.13;;;;;;;6.72;73.86;101236.97;5085511;28;20035;-65
2022/05/08 02:40:38;;;;;;;12.52;3.67;;;;;;;6.66;73.64;101228.25;5085365;28;20484;-65
2022/05/08 02:43:04;;;;;;;12.98;3.63;;;;;;;6.63;73.43;101242.81;5085301;28;20021;-65
2022/05/08 02:45:29;;;;;;;11.52;4.13;;;;;;;6.59;73.30;101238.41;5085268;28;20059;-65
2022/05/08 02:47:54;;;;;;;6.65;3.13;;;;;;;6.53;72.97;101234.84;5085255;28;20107;-64
2022/05/08 02:50:20;;;;;;;8.07;3.25;;;;;;;6.51;72.65;101235.66;5085369;28;20103;-66
2022/05/08 02:52:46;;;;;;;8.75;3.20;;;;;;;6.48;72.36;101235.59;5085181;28;20027;-66
2022/05/08 03:00:43;;;;;;;8.77;2.55;;;;;;;6.31;71.71;101241.25;5085189;28;20052;-65
2022/05/08 03:03:09;;;;;;;6.70;2.70;;;;;;;6.27;71.45;101239.44;5085058;28;20027;-65
2022/05/08 03:05:35;;;;;;;6.35;2.88;;;;;;;6.24;71.07;101249.69;5085131;28;20146;-65
2022/05/08 03:08:02;;;;;;;5.20;2.15;;;;;;;6.20;70.96;101241.88;5084965;28;20042;-65
2022/05/08 03:10:28;;;;;;;6.82;2.63;;;;;;;6.18;70.75;101240.97;5084772;28;20024;-65
2022/05/08 03:12:54;;;;;;;9.07;2.80;;;;;;;6.14;70.39;101246.00;5085063;28;20027;-65
2022/05/08 03:15:19;;;;;;;6.07;2.50;;;;;;;6.09;70.61;101243.31;5084878;28;20441;-65
2022/05/08 03:17:45;;;;;;;10.60;3.08;;;;;;;5.88;70.44;101213.59;5084765;28;20039;-65
2022/05/08 03:20:11;;;;;;;5.10;2.30;;;;;;;6.09;70.42;101252.78;5084724;28;20024;-65
2022/05/08 03:22:36;;;;;;;6.05;2.42;;;;;;;6.07;70.23;101260.47;5084643;28;20107;-65
2022/05/08 03:25:02;;;;;;;8.82;2.63;;;;;;;6.10;70.17;101257.09;5084597;28;20033;-65
2022/05/08 03:27:28;;;;;;;8.63;2.42;;;;;;;6.12;70.02;101256.28;5084681;28;20025;-65
2022/05/08 03:29:53;;;;;;;5.47;2.22;;;;;;;6.17;70.09;101265.00;5084661;28;20104;-65
2022/05/08 03:32:19;;;;;;;10.50;2.47;;;;;;;6.23;69.84;101260.84;5084331;28;20035;-66
2022/05/08 03:34:44;;;;;;;7.13;2.38;;;;;;;6.37;69.88;101274.03;5084419;28;20020;-66
2022/05/08 03:37:10;;;;;;;3.45;1.92;;;;;;;6.43;69.73;101274.19;5084087;28;20095;-66
2022/05/08 03:39:35;;;;;;;6.20;2.30;;;;;;;6.48;69.57;101266.56;5084320;28;20088;-66
2022/05/08 03:42:00;;;;;;;5.15;1.70;;;;;;;6.62;69.80;101274.59;5084357;28;20056;-66
2022/05/08 03:44:26;;;;;;;4.32;1.90;;;;;;;6.81;69.53;101275.88;5084568;28;20055;-66
2022/05/08 03:46:51;;;;;;;3.28;1.90;;;;;;;7.04;69.16;101290.97;5084202;28;20095;-65
2022/05/08 03:49:16;;;;;;;5.47;2.05;;;;;;;7.16;68.45;101282.59;5084235;28;20126;-66
2022/05/08 03:51:42;;;;;;;4.97;1.77;;;;;;;7.22;68.36;101287.03;5065955;28;20025;-66
2022/05/08 03:54:09;;;;;;;4.85;1.92;;;;;;;7.29;68.03;101291.44;5084342;28;20021;-66
2022/05/08 03:56:35;;;;;;;5.45;2.15;;;;;;;7.39;67.83;101295.97;5083997;28;20020;-66
2022/05/08 03:59:00;;;;;;;5.07;1.90;;;;;;;7.59;68.14;101292.88;5083986;28;20142;-64
2022/05/08 04:01:26;;;;;;;3.83;1.90;;;;;;;8.01;68.38;101305.66;5083852;28;20127;-66
2022/05/08 04:03:51;;;;;;;5.70;1.73;;;;;;;8.43;67.34;101309.75;5083735;28;20088;-66
2022/05/08 04:06:17;;;;;;;4.00;1.75;;;;;;;8.68;66.38;101309.28;5083388;28;20012;-66
2022/05/08 04:08:42;;;;;;;3.20;1.60;;;;;;;8.92;64.88;101313.06;5083897;28;20108;-66
2022/05/08 04:11:07;;;;;;;3.20;1.40;;;;;;;8.98;63.51;101309.69;5083758;28;20035;-65
2022/05/08 04:13:33;;;;;;;2.75;1.50;;;;;;;8.87;62.73;101313.00;5083921;28;20038;-65
2022/05/08 04:16:17;;;;;;;7.10;1.67;;;;;;;8.81;62.38;101305.16;5084196;28;20096;-66
2022/05/08 04:18:42;;;;;;;6.50;1.77;;;;;;;8.64;62.33;101281.63;5083856;28;20028;-65
2022/05/08 04:21:07;;;;;;;10.50;2.00;;;;;;;8.97;61.98;101318.31;5083757;28;20020;-65
2022/05/08 04:26:17;;;;;;;4.93;1.40;;;;;;;9.66;61.80;101336.38;5083817;28;20036;-64
2022/05/08 04:28:42;;;;;;;2.95;1.63;;;;;;;10.13;60.97;101330.75;5083819;28;20032;-65
2022/05/08 04:31:07;;;;;;;5.18;1.30;;;;;;;10.51;58.68;101330.19;5083388;28;20017;-65
2022/05/08 04:33:33;;;;;;;5.18;1.40;;;;;;;10.40;57.35;101332.69;5083708;28;20021;-64
2022/05/08 04:35:58;;;;;;;2.38;1.02;;;;;;;10.23;57.23;101345.53;5083302;28;20039;-63
2022/05/08 04:38:23;;;;;;;2.00;1.05;;;;;;;10.10;56.69;101344.56;5083456;28;20040;-65
2022/05/08 04:40:49;;;;;;;3.33;1.38;;;;;;;9.90;56.06;101355.63;5083804;28;20061;-65
2022/05/08 04:43:14;;;;;;;5.03;1.48;;;;;;;9.89;57.23;101353.88;5083630;28;20056;-65
2022/05/08 04:45:39;;;;;;;2.20;1.30;;;;;;;10.17;55.52;101354.13;5083632;28;20028;-65
2022/05/08 04:48:05;;;;;;;4.85;1.10;;;;;;;10.49;55.42;101362.22;5083336;28;20106;-65
2022/05/08 04:50:31;;;;;;;2.92;1.35;;;;;;;10.86;55.69;101359.84;5065332;28;20028;-65
2022/05/08 04:52:56;;;;;;;2.10;1.20;;;;;;;11.03;54.39;101356.47;5083195;28;20021;-65
2022/05/08 04:55:21;;;;;;;2.70;1.25;;;;;;;11.22;53.46;101364.34;5083292;28;20508;-65
2022/05/08 04:57:47;;;;;;;5.18;1.20;;;;;;;11.43;52.82;101368.78;5083275;28;20024;-65
2022/05/08 05:00:13;;;;;;;2.22;1.10;;;;;;;11.52;51.11;101374.00;5083513;28;20062;-65
2022/05/08 05:02:38;;;;;;;5.63;1.17;;;;;;;11.70;51.35;101372.31;5083041;28;20035;-65
2022/05/08 05:05:06;;;;;;;2.97;1.27;;;;;;;11.69;50.16;101377.53;5083478;28;20099;-65
2022/05/08 05:07:31;;;;;;;3.78;1.42;;;;;;;11.75;48.92;101381.00;5083285;28;20028;-65
2022/05/08 05:09:57;;;;;;;2.08;1.30;;;;;;;11.86;48.74;101378.44;5083373;28;20034;-65
2022/05/08 05:12:23;;;;;;;2.13;1.45;;;;;;;12.22;48.15;101388.06;5083091;28;20046;-65
2022/05/08 05:14:48;;;;;;;2.28;1.00;;;;;;;12.52;47.88;101386.31;5083124;28;20107;-65
2022/05/08 05:17:13;;;;;;;1.73;1.00;;;;;;;12.70;46.49;101397.59;5081929;28;20024;-66
2022/05/08 05:19:39;;;;;;;3.63;1.10;;;;;;;12.71;44.97;101394.09;5083153;28;20357;-65
2022/05/08 05:22:05;;;;;;;1.63;0.90;;;;;;;12.45;45.18;101400.19;5082833;28;20048;-66
2022/05/08 05:24:30;;;;;;;2.55;1.15;;;;;;;12.53;45.95;101403.66;5083104;28;20021;-65
2022/05/08 05:26:56;;;;;;;3.00;1.02;;;;;;;12.52;44.80;101407.16;5083118;28;20024;-65
2022/05/08 05:29:21;;;;;;;2.67;0.88;;;;;;;12.73;45.59;101415.81;5083181;28;20074;-65
2022/05/08 05:31:47;;;;;;;2.70;0.95;;;;;;;13.01;44.45;101413.16;5082815;28;20020;-66
2022/05/08 05:34:12;;;;;;;2.72;0.98;;;;;;;13.14;44.34;101430.50;5082739;28;20024;-65
2022/05/08 05:36:38;;;;;;;1.30;0.73;;;;;;;13.06;44.33;101418.34;5082527;28;20044;-65
2022/05/08 05:39:03;;;;;;;2.80;1.20;;;;;;;12.96;43.65;101422.72;5082744;28;20052;-65
2022/05/08 05:41:28;;;;;;;1.45;0.90;;;;;;;12.68;43.82;101433.19;5082849;28;20024;-65
2022/05/08 05:43:54;;;;;;;2.72;1.20;;;;;;;12.66;44.14;101440.13;5064823;28;20048;-65
2022/05/08 05:49:04;;;;;;;2.55;0.98;;;;;;;12.69;43.85;101448.81;5082895;28;20027;-66
2022/05/08 05:51:29;;;;;;;1.65;0.88;;;;;;;12.52;43.13;101436.66;5082779;28;20048;-65
2022/05/08 05:53:55;;;;;;;3.47;1.00;;;;;;;12.52;43.46;101448.81;5082665;28;20024;-65
2022/05/08 05:56:20;;;;;;;2.20;0.90;;;;;;;12.51;44.06;101452.28;5082653;28;20116;-65
2022/05/08 05:58:45;;;;;;;5.82;1.20;;;;;;;12.62;44.13;101462.72;5082777;28;20088;-65
2022/05/08 06:01:11;;;;;;;2.95;1.35;;;;;;;12.80;43.71;101459.22;5082477;28;20049;-65
2022/05/08 06:03:38;;;;;;;1.75;0.80;;;;;;;12.83;43.11;101469.66;5082726;28;20480;-65
2022/05/08 06:06:03;;;;;;;2.50;1.30;;;;;;;12.47;44.11;101468.78;5082509;28;20059;-65
2022/05/08 06:08:28;;;;;;;2.63;1.30;;;;;;;12.37;44.84;101462.69;5082784;28;20054;-65
2022/05/08 06:10:54;;;;;;;2.05;1.20;;;;;;;12.51;44.71;101471.38;5082473;28;20484;-66
2022/05/08 06:13:21;;;;;;;5.22;2.30;;;;;;;12.36;45.33;101469.63;5082596;28;20119;-66
2022/05/08 06:15:47;;;;;;;2.45;1.40;;;;;;;12.54;45.50;101478.31;5082638;28;20044;-65
2022/05/08 06:18:12;;;;;;;1.85;1.10;;;;;;;12.66;45.72;101484.41;5082398;28;20035;-66
2022/05/08 06:20:38;;;;;;;2.53;1.13;;;;;;;12.71;45.19;101483.56;5082702;28;20024;-66
2022/05/08 06:23:03;;;;;;;2.03;0.90;;;;;;;12.47;45.88;101487.00;5082490;28;20088;-66
2022/05/08 06:25:29;;;;;;;2.83;1.30;;;;;;;12.42;46.25;101499.16;5082589;28;20021;-65
2022/05/08 06:27:54;;;;;;;1.38;0.95;;;;;;;12.33;47.13;101495.66;5082598;28;20514;-69
2022/05/08 06:30:20;;;;;;;3.28;1.17;;;;;;;12.43;47.43;101483.53;5085932;28;20024;-69
2022/05/08 06:32:45;;;;;;;1.55;1.02;;;;;;;13.04;47.66;101503.50;5085806;28;20306;-69
2022/05/08 06:35:10;;;;;;;1.92;1.10;;;;;;;13.44;46.35;101507.78;5085642;28;20083;-69
2022/05/08 06:37:36;;;;;;;1.70;1.00;;;;;;;13.91;45.89;101499.81;5085698;28;20051;-69
2022/05/08 06:40:01;;;;;;;1.73;0.80;;;;;;;14.25;44.86;101504.84;5085964;28;20031;-69
2022/05/08 06:42:26;;;;;;;3.03;1.20;;;;;;;14.59;44.41;101512.47;5067558;28;20108;-68
2022/05/08 06:44:52;;;;;;;4.18;1.30;;;;;;;14.52;44.24;101510.75;5067683;28;20025;-69
2022/05/08 06:47:17;;;;;;;3.60;1.40;;;;;;;14.75;44.46;101528.91;5085659;28;20417;-68
2022/05/08 06:49:43;;;;;;;1.90;1.30;;;;;;;14.76;43.99;101529.75;5085819;28;20025;-69
2022/05/08 06:52:08;;;;;;;2.35;1.60;;;;;;;13.97;44.71;101518.06;5085515;28;20050;-69
2022/05/08 06:54:33;;;;;;;2.22;1.55;;;;;;;13.37;46.33;101526.06;5085596;28;20039;-69
2022/05/08 06:56:59;;;;;;;4.10;1.40;;;;;;;13.06;47.03;101520.91;5085656;28;20067;-68
2022/05/08 07:02:11;;;;;;;2.05;1.20;;;;;;;12.38;48.41;101519.13;5085140;28;20058;-68
2022/05/08 07:04:40;;;;;;;2.88;1.40;;;;;;;12.23;49.20;101531.25;5085485;28;20020;-73
2022/05/08 07:07:06;;;;;;;2.72;1.20;;;;;;;12.46;49.15;101539.97;5085161;28;20027;-74
2022/05/08 07:09:32;;;;;;;2.05;1.30;;;;;;;12.57;49.07;101540.84;5085403;28;20017;-71
2022/05/08 07:11:58;;;;;;;3.65;1.30;;;;;;;12.82;48.67;101543.50;5067216;28;20111;-71
2022/05/08 07:14:23;;;;;;;2.92;2.00;;;;;;;12.81;48.51;101530.47;5085201;28;20044;-68
2022/05/08 07:16:48;;;;;;;2.88;1.23;;;;;;;13.08;47.76;101536.53;5066798;28;20128;-69
2022/05/08 07:19:14;;;;;;;2.78;1.02;;;;;;;13.22;47.33;101544.34;5085239;28;20031;-71
2022/05/08 07:21:39;;;;;;;1.77;1.15;;;;;;;13.35;46.40;101558.25;5085326;28;20498;-70
2022/05/08 07:24:05;;;;;;;2.00;1.10;;;;;;;13.37;45.90;101572.16;5066945;28;20492;-69
2022/05/08 07:26:31;;;;;;;1.63;1.10;;;;;;;13.32;45.23;101559.09;5085188;28;20028;-69
2022/05/08 07:28:56;;;;;;;1.88;1.30;;;;;;;13.35;44.81;101555.63;5084993;28;20039;-69
2022/05/08 07:31:22;;;;;;;1.50;0.80;;;;;;;13.50;44.86;101562.53;5084910;28;20456;-70
2022/05/08 07:33:47;;;;;;;3.35;0.90;;;;;;;13.51;43.71;101559.13;5085037;28;20024;-71
2022/05/08 07:36:12;;;;;;;3.60;1.73;;;;;;;13.51;44.35;101579.97;5084747;28;20040;-70
2022/05/08 07:38:42;;;;;;;2.25;1.00;;;;;;;13.56;43.85;101562.56;5084810;28;20086;-70
2022/05/08 07:41:09;;;;;;;2.45;1.10;;;;;;;13.81;43.83;101565.13;5083986;28;20055;-70
2022/05/08 07:43:34;;;;;;;1.45;0.80;;;;;;;14.09;42.73;101559.78;5084150;28;20024;-70
2022/05/08 07:46:00;;;;;;;1.00;0.80;;;;;;;14.59;42.98;101572.56;5083810;28;20102;-70
2022/05/08 07:48:25;;;;;;;3.40;1.00;;;;;;;15.07;40.83;101579.22;5083835;28;20013;-69
2022/05/08 07:50:51;;;;;;;3.58;0.95;;;;;;;15.14;40.10;101582.66;5083762;28;20023;-71
2022/05/08 07:53:16;;;;;;;1.65;0.98;;;;;;;15.01;39.43;101575.78;5084107;28;20051;-70
2022/05/08 07:55:41;;;;;;;2.53;0.90;;;;;;;14.94;39.84;101574.97;5083923;28;20032;-71
2022/05/08 07:58:08;;;;;;;2.53;0.90;;;;;;;14.95;38.92;101574.09;5065639;28;20021;-70
2022/05/08 08:00:36;;;;;;;1.50;0.57;;;;;;;14.90;39.18;101586.34;5083891;28;20021;-67
2022/05/08 08:03:02;;;;;;;3.22;0.80;;;;;;;14.79;39.18;101576.81;5083429;28;20249;-70
2022/05/08 08:05:27;;;;;;;2.13;0.90;;;;;;;14.61;39.41;101577.78;5083605;28;20020;-68
2022/05/08 08:07:53;;;;;;;2.10;0.82;;;;;;;15.21;38.96;101588.69;5083389;28;20039;-68
2022/05/08 08:10:18;;;;;;;1.73;0.80;;;;;;;15.60;38.88;101589.19;5065144;28;20452;-70
2022/05/08 08:12:43;;;;;;;1.85;1.08;;;;;;;15.92;37.63;101583.59;5065102;28;20035;-72
2022/05/08 08:15:09;;;;;;;3.80;1.25;;;;;;;16.02;37.57;101580.03;5083042;28;20392;-69
2022/05/08 08:17:35;;;;;;;2.53;0.95;;;;;;;16.46;36.86;101585.56;5083102;28;20172;-66
2022/05/08 08:20:01;;;;;;;1.45;0.77;;;;;;;16.81;36.09;101595.53;5083294;28;20016;-67
2022/05/08 08:22:27;;;;;;;1.75;0.80;;;;;;;17.26;35.03;101607.09;5083249;28;20100;-64
2022/05/08 08:24:52;;;;;;;1.38;0.70;;;;;;;17.30;33.86;101604.38;5083497;28;20021;-63
2022/05/08 08:27:19;;;;;;;2.33;0.93;;;;;;;16.77;33.53;101609.59;5065513;28;20082;-63
2022/05/08 08:29:44;;;;;;;2.42;0.90;;;;;;;16.44;34.30;101613.53;5083217;28;20029;-63
2022/05/08 08:32:10;;;;;;;2.13;0.75;;;;;;;16.58;34.11;101604.63;5082995;28;20440;-70
2022/05/08 08:34:35;;;;;;;3.20;0.98;;;;;;;16.80;33.20;101609.53;5082838;28;20024;-69
2022/05/08 08:37:01;;;;;;;3.55;0.88;;;;;;;16.68;33.33;101626.31;5082753;28;20138;-68
2022/05/08 08:39:26;;;;;;;2.63;1.17;;;;;;;16.47;32.92;101634.47;5083080;28;20031;-70
2022/05/08 08:42:07;;;;;;;2.80;1.02;;;;;;;16.06;33.03;101628.00;5082703;28;20055;-70
2022/05/08 08:50:04;;;;;;;0.98;0.65;;;;;;;15.93;32.17;101643.81;5082594;28;20063;-63
2022/05/08 08:52:30;;;;;;;2.13;0.75;;;;;;;15.82;32.04;101650.91;5064423;28;20020;-64
2022/05/08 08:54:55;;;;;;;2.17;0.77;;;;;;;15.77;31.87;101640.50;5082778;28;20039;-68
2022/05/08 08:57:20;;;;;;;1.77;1.00;;;;;;;15.55;32.30;101643.34;5082421;28;20187;-67
2022/05/08 08:59:46;;;;;;;2.53;0.80;;;;;;;15.83;32.41;101665.75;5081853;28;20512;-67
2022/05/08 09:02:16;;;;;;;1.02;0.60;;;;;;;16.14;32.15;101656.72;5082098;28;20024;-67
2022/05/08 09:04:44;;;;;;;1.38;0.50;;;;;;;16.17;30.98;101657.56;5082585;28;20024;-66
2022/05/08 09:07:34;;;;;;;1.85;0.82;;;;;;;16.34;31.52;101652.09;5082646;28;20025;-67
2022/05/08 09:10:35;;;;;;;2.33;0.70;;;;;;;17.23;30.14;101650.00;5082499;28;20032;-69
2022/05/08 09:13:07;;;;;;;3.45;0.90;;;;;;;17.13;28.58;101654.53;5082418;28;20032;-68
2022/05/08 09:15:37;;;;;;;;;;;;;;;17.22;29.25;101662.25;5082798;28;20098;-67
2022/05/08 09:18:10;;;;;;;2.00;0.90;;;;;;;17.43;27.97;101652.28;5082132;28;19909;-69
2022/05/08 09:20:43;;;;;;;1.10;0.80;;;;;;;17.88;27.92;101663.72;5082547;28;20025;-68
2022/05/08 09:23:19;;;;;;;3.10;0.70;;;;;;;18.60;26.24;101669.31;5082175;28;20024;-69
2022/05/08 09:25:48;;;;;;;1.02;0.70;;;;;;;18.36;25.35;101676.84;5082529;28;20027;-71
2022/05/08 09:28:14;;;;;;;5.22;1.63;;;;;;;18.06;25.36;101683.53;5064543;28;20034;-68
2022/05/08 09:30:58;;;;;;;1.55;0.70;;;;;;;17.48;26.29;101686.31;5082379;28;20504;-69
2022/05/08 09:33:24;;;;;;;2.55;0.77;;;;;;;17.42;25.95;101681.19;5082082;28;20031;-69
2022/05/08 09:35:50;;;;;;;2.08;0.90;;;;;;;17.86;25.81;101677.81;5081729;28;20053;-68
2022/05/08 09:38:15;;;;;;;1.83;0.57;;;;;;;18.35;25.39;101683.88;5081837;28;20044;-68
2022/05/08 09:40:41;;;;;;;3.20;0.90;;;;;;;18.47;24.92;101674.84;5082188;28;20275;-67
2022/05/08 09:43:26;;;;;;;2.97;0.70;;;;;;;18.78;24.44;101682.09;5082150;28;20027;-68
2022/05/08 09:46:02;;;;;;;1.60;0.85;;;;;;;18.23;24.02;101687.63;5082222;28;20025;-67
2022/05/08 09:48:29;;;;;;;4.68;1.55;;;;;;;18.23;24.97;101687.63;5081857;28;20024;-67
2022/05/08 09:51:03;;;;;;;1.50;0.70;;;;;;;18.79;24.15;101682.94;5081942;28;20035;-68
2022/05/08 09:53:30;;;;;;;2.33;0.63;;;;;;;18.91;23.09;101693.16;5082038;28;20024;-67
2022/05/08 09:55:56;;;;;;;1.08;0.60;;;;;;;18.30;24.01;101698.88;5081961;28;20490;-67
2022/05/08 09:58:22;;;;;;;1.02;0.60;;;;;;;17.85;24.22;101695.31;5082027;28;20025;-67
2022/05/08 10:00:48;;;;;;;2.45;0.70;;;;;;;17.92;24.51;101696.06;5081818;28;20067;-67
2022/05/08 10:03:15;;;;;;;1.92;0.70;;;;;;;17.78;23.56;101686.69;5082223;28;20107;-67
2022/05/08 10:05:42;;;;;;;1.60;0.70;;;;;;;17.56;23.32;101692.31;5067805;28;20017;-68
2022/05/08 10:08:08;;;;;;;4.57;0.75;;;;;;;17.42;23.54;101720.56;5085962;28;20040;-68
2022/05/08 10:14:00;;;;;;;1.83;0.65;;;;;;;17.22;23.89;101706.00;5085770;28;20035;-68
2022/05/08 10:16:57;;;;;;;2.38;1.02;;;;;;;17.52;23.90;101703.78;5085118;28;20079;-68
2022/05/08 10:19:25;;;;;;;3.05;0.68;;;;;;;17.76;22.80;101714.75;5085752;28;20021;-69
2022/05/08 10:21:57;;;;;;;1.00;0.60;;;;;;;17.73;22.74;101721.81;5085417;28;20024;-67
2022/05/08 10:24:30;;;;;;;1.65;0.70;;;;;;;17.43;23.33;101709.16;5067367;28;20032;-67
2022/05/08 10:27:15;;;;;;;3.08;0.70;;;;;;;17.56;22.97;101722.94;5085162;28;20025;-67
2022/05/08 10:29:50;;;;;;;2.10;0.70;;;;;;;17.42;22.35;101720.56;5085513;28;20039;-67
2022/05/08 10:32:28;;;;;;;1.75;0.98;;;;;;;17.22;23.23;101713.88;5085119;28;20025;-69
2022/05/08 10:35:10;;;;;;;3.45;0.70;;;;;;;17.28;24.00;101705.91;5067468;28;20336;-68
2022/05/08 10:38:00;;;;;;;1.33;0.75;;;;;;;17.29;23.49;101718.13;5084947;28;20132;-69
2022/05/08 10:40:28;;;;;;;1.73;0.60;;;;;;;17.29;23.73;101712.00;5085167;28;20028;-68
2022/05/08 10:42:58;;;;;;;1.17;0.65;;;;;;;17.28;23.66;101726.91;5085034;28;20052;-68
2022/05/08 10:45:30;;;;;;;1.73;0.80;;;;;;;17.44;23.40;101719.63;5066744;28;20059;-68
2022/05/08 10:47:56;;;;;;;0.95;0.55;;;;;;;17.55;23.11;101723.84;5084880;28;20020;-68
2022/05/08 10:50:22;;;;;;;3.60;0.80;;;;;;;17.65;23.85;101729.81;5066847;28;20081;-69
2022/05/08 10:52:47;;;;;;;1.55;0.60;;;;;;;17.84;22.75;101710.19;5084852;28;20046;-69
2022/05/08 10:55:15;;;;;;;1.95;0.90;;;;;;;18.02;23.34;101728.31;5084959;28;20237;-67
2022/05/08 10:57:41;;;;;;;1.73;0.70;;;;;;;18.38;23.45;101723.25;5084659;28;20054;-68
2022/05/08 11:00:09;;;;;;;2.58;1.10;;;;;;;18.50;23.74;101732.63;5066490;28;20025;-67
2022/05/08 11:02:43;;;;;;;1.75;0.60;;;;;;;18.22;22.64;101730.56;5084354;28;20029;-67
2022/05/08 11:05:32;;;;;;;2.42;0.57;;;;;;;17.52;22.54;101737.03;5084913;28;20062;-68
2022/05/08 11:08:00;;;;;;;2.13;0.80;;;;;;;16.78;22.41;101726.69;5076291;28;20032;-71
2022/05/08 11:10:27;;;;;;;0.60;0.50;;;;;;;16.15;22.87;101732.66;5084955;28;20029;-67
2022/05/08 11:12:55;;;;;;;2.35;1.02;;;;;;;15.78;23.06;101751.34;5084438;28;20035;-68
2022/05/08 11:15:20;;;;;;;2.72;0.68;;;;;;;15.33;22.74;101742.97;5083558;28;20055;-68
2022/05/08 11:17:45;;;;;;;3.08;1.10;;;;;;;14.96;23.06;101736.22;5084299;28;20388;-70
2022/05/08 11:20:15;;;;;;;1.20;0.77;;;;;;;14.77;23.66;101742.34;5084755;28;20024;-69
2022/05/08 11:22:56;;;;;;;1.38;0.80;;;;;;;14.74;23.82;101748.47;5083991;28;20024;-67
2022/05/08 11:25:22;;;;;;;2.08;0.80;;;;;;;14.61;23.21;101758.13;5084331;28;20028;-69
2022/05/08 11:27:55;;;;;;;1.20;0.70;;;;;;;14.39;23.09;101755.56;5066226;28;20370;-69
2022/05/08 11:30:35;;;;;;;1.00;0.50;;;;;;;14.10;23.08;101757.38;5066486;28;20508;-69
2022/05/08 11:36:04;;;;;;;2.30;0.70;;;;;;;13.69;23.55;101742.63;5083972;28;20411;-69
2022/05/08 11:38:50;;;;;;;1.30;0.88;;;;;;;13.69;23.60;101751.28;5084120;28;20040;-69
2022/05/08 11:41:21;;;;;;;1.25;0.85;;;;;;;13.74;23.48;101759.13;5084080;28;20055;-68
2022/05/08 11:43:58;;;;;;;0.90;0.63;;;;;;;13.80;23.21;101753.03;5084044;28;20016;-69
2022/05/08 11:46:38;;;;;;;4.35;0.85;;;;;;;13.74;23.61;101762.59;5083812;28;20539;-70
2022/05/08 11:49:21;;;;;;;2.10;0.98;;;;;;;13.88;23.66;101757.38;5083820;28;20029;-70
2022/05/08 11:51:48;;;;;;;2.38;1.15;;;;;;;14.11;24.26;101750.41;5083745;28;20426;-72
2022/05/08 11:54:32;;;;;;;4.65;0.90;;;;;;;14.40;23.54;101751.19;5083835;28;20024;-66